createdAt,value
2023-02-13T00:00:22.980Z,14.02
2023-02-13T00:02:50.029Z,13.98
2023-02-13T00:05:16.936Z,13.95
2023-02-13T00:07:43.682Z,13.91
2023-02-13T00:10:10.811Z,13.88
2023-02-13T00:12:37.396Z,13.89
2023-02-13T00:15:05.014Z,13.87
2023-02-13T00:17:32.253Z,13.85
2023-02-13T00:19:59.255Z,13.80
2023-02-13T00:22:26.332Z,13.78
2023-02-13T00:24:52.984Z,13.77
2023-02-13T00:27:19.659Z,13.74
2023-02-13T00:29:46.959Z,13.74
2023-02-13T00:32:14.662Z,13.73
2023-02-13T00:34:41.726Z,13.71
2023-02-13T00:37:08.380Z,13.66
2023-02-13T00:39:35.212Z,13.64
2023-02-13T00:42:01.812Z,13.60
2023-02-13T00:44:28.899Z,13.62
2023-02-13T00:46:55.702Z,13.58
2023-02-13T00:49:23.660Z,13.58
2023-02-13T00:51:50.342Z,13.51
2023-02-13T00:54:17.037Z,13.50
2023-02-13T00:56:44.100Z,13.47
2023-02-13T00:59:13.162Z,13.46
2023-02-13T01:01:39.846Z,13.44
2023-02-13T01:04:06.584Z,13.45
2023-02-13T01:06:33.303Z,13.42
2023-02-13T01:09:00.010Z,13.41
2023-02-13T01:11:26.683Z,13.45
2023-02-13T01:13:53.340Z,13.38
2023-02-13T01:16:20.645Z,13.40
2023-02-13T01:18:47.689Z,13.36
2023-02-13T01:21:20.981Z,13.34
2023-02-13T01:23:47.700Z,13.33
2023-02-13T01:26:20.321Z,13.31
2023-02-13T01:28:52.717Z,13.28
2023-02-13T01:31:19.688Z,13.26
2023-02-13T01:33:46.610Z,13.25
2023-02-13T01:36:14.322Z,13.24
2023-02-13T01:38:41.806Z,13.22
2023-02-13T01:41:09.679Z,13.24
2023-02-13T01:43:46.890Z,13.19
2023-02-13T01:46:18.815Z,13.19
2023-02-13T01:48:47.096Z,13.16
2023-02-13T01:51:20.156Z,13.14
2023-02-13T01:53:53.634Z,13.10
2023-02-13T01:56:29.888Z,13.12
2023-02-13T01:59:01.966Z,13.12
2023-02-13T02:01:31.705Z,13.11
2023-02-13T02:04:09.204Z,13.08
2023-02-13T02:06:46.812Z,13.05
2023-02-13T02:09:25.904Z,13.03
2023-02-13T02:12:24.999Z,13.02
2023-02-13T02:14:54.173Z,13.00
2023-02-13T02:17:24.593Z,13.02
2023-02-13T02:20:02.969Z,12.96
2023-02-13T02:22:45.237Z,12.92
2023-02-13T02:25:34.532Z,12.94
2023-02-13T02:28:21.078Z,12.92
2023-02-13T02:31:24.698Z,12.88
2023-02-13T02:34:14.526Z,12.90
2023-02-13T02:36:55.743Z,12.88
2023-02-13T02:39:57.548Z,12.85
2023-02-13T02:42:36.856Z,12.86
2023-02-13T02:45:29.248Z,12.82
2023-02-13T02:48:53.640Z,12.82
2023-02-13T02:51:35.841Z,12.79
2023-02-13T02:54:48.066Z,12.79
2023-02-13T02:57:24.998Z,12.74
2023-02-13T03:00:17.156Z,12.77
2023-02-13T03:03:22.700Z,12.73
2023-02-13T03:15:17.086Z,12.67
2023-02-13T03:21:15.000Z,12.66
2023-02-13T03:24:04.669Z,12.67
2023-02-13T03:33:06.137Z,12.60
2023-02-13T03:36:01.132Z,12.56
2023-02-13T03:38:36.003Z,12.58
2023-02-13T03:41:20.145Z,12.53
2023-02-13T03:43:58.261Z,12.54
2023-02-13T03:46:27.409Z,12.51
2023-02-13T03:49:15.271Z,12.51
2023-02-13T03:51:59.301Z,12.52
2023-02-13T03:55:05.794Z,12.52
2023-02-13T03:57:54.877Z,12.47
2023-02-13T04:00:22.289Z,12.47
2023-02-13T04:03:05.927Z,12.43
2023-02-13T04:05:40.550Z,12.43
2023-02-13T04:08:07.291Z,12.44
2023-02-13T04:10:37.980Z,12.40
2023-02-13T04:13:15.946Z,12.43
2023-02-13T04:15:50.095Z,12.38
2023-02-13T04:18:27.631Z,12.35
2023-02-13T04:20:54.635Z,12.38
2023-02-13T04:23:21.377Z,12.37
2023-02-13T04:25:52.091Z,12.33
2023-02-13T04:28:18.905Z,12.32
2023-02-13T04:30:45.951Z,12.29
2023-02-13T04:33:12.785Z,12.27
2023-02-13T04:35:39.538Z,12.33
2023-02-13T04:38:06.243Z,12.27
2023-02-13T04:40:33.168Z,12.27
2023-02-13T04:43:00.456Z,12.28
2023-02-13T04:45:27.334Z,12.26
2023-02-13T04:47:55.951Z,12.21
2023-02-13T04:50:23.567Z,12.21
2023-02-13T04:52:57.618Z,12.22
2023-02-13T04:55:26.355Z,12.23
2023-02-13T04:57:54.496Z,12.19
2023-02-13T05:00:22.754Z,12.19
2023-02-13T05:02:49.738Z,12.14
2023-02-13T05:05:16.497Z,12.15
2023-02-13T05:07:43.460Z,12.14
2023-02-13T05:10:11.434Z,12.14
2023-02-13T05:12:38.202Z,12.10
2023-02-13T05:15:06.135Z,12.10
2023-02-13T05:17:32.991Z,12.09
2023-02-13T05:20:00.095Z,12.09
2023-02-13T05:22:45.148Z,12.10
2023-02-13T05:25:11.880Z,12.08
2023-02-13T05:27:38.639Z,12.07
2023-02-13T05:30:06.145Z,12.07
2023-02-13T05:32:32.790Z,12.07
2023-02-13T05:34:59.523Z,12.07
2023-02-13T05:37:26.235Z,12.04
2023-02-13T05:39:52.834Z,12.05
2023-02-13T05:42:19.393Z,12.04
2023-02-13T05:44:46.223Z,12.04
2023-02-13T05:47:12.993Z,12.02
2023-02-13T05:49:39.667Z,11.98
2023-02-13T05:52:06.501Z,11.95
2023-02-13T05:54:33.364Z,11.96
2023-02-13T05:57:00.218Z,11.92
2023-02-13T05:59:27.023Z,11.94
2023-02-13T06:01:54.648Z,11.95
2023-02-13T06:04:21.298Z,11.95
2023-02-13T06:06:47.961Z,11.89
2023-02-13T06:09:14.636Z,11.88
2023-02-13T06:11:41.470Z,11.88
2023-02-13T06:14:08.129Z,11.85
2023-02-13T06:16:34.786Z,11.87
2023-02-13T06:19:01.430Z,11.86
2023-02-13T06:21:28.106Z,11.82
2023-02-13T06:23:54.768Z,11.82
2023-02-13T06:26:21.562Z,11.82
2023-02-13T06:28:48.327Z,11.83
2023-02-13T06:31:15.386Z,11.80
2023-02-13T06:33:42.378Z,11.81
2023-02-13T06:36:09.127Z,11.81
2023-02-13T06:38:35.803Z,12.09
2023-02-13T06:41:03.015Z,11.92
2023-02-13T06:43:29.911Z,11.83
2023-02-13T06:45:56.643Z,11.77
2023-02-13T06:48:23.346Z,11.75
2023-02-13T06:50:52.148Z,11.74
2023-02-13T06:53:24.683Z,11.72
2023-02-13T06:55:53.416Z,11.70
2023-02-13T06:58:21.628Z,11.63
2023-02-13T07:00:48.658Z,11.68
2023-02-13T07:03:15.389Z,11.62
2023-02-13T07:05:43.536Z,11.59
2023-02-13T07:08:11.697Z,11.61
2023-02-13T07:10:39.633Z,11.61
2023-02-13T07:13:06.914Z,11.60
2023-02-13T07:15:34.872Z,11.58
2023-02-13T07:18:01.949Z,11.51
2023-02-13T07:20:29.202Z,11.53
2023-02-13T07:23:02.910Z,11.54
2023-02-13T07:25:30.024Z,11.54
2023-02-13T07:28:05.578Z,11.50
2023-02-13T07:30:33.830Z,11.50
2023-02-13T07:33:02.375Z,11.48
2023-02-13T07:35:29.637Z,11.46
2023-02-13T07:37:56.363Z,11.43
2023-02-13T07:40:23.088Z,11.42
2023-02-13T07:42:49.721Z,11.46
2023-02-13T07:45:16.620Z,11.42
2023-02-13T07:47:43.689Z,11.42
2023-02-13T07:50:10.804Z,11.41
2023-02-13T07:52:38.155Z,11.44
2023-02-13T07:55:06.040Z,11.47
2023-02-13T07:57:33.584Z,11.42
2023-02-13T08:00:00.511Z,11.46
2023-02-13T08:02:27.285Z,11.61
2023-02-13T08:04:53.949Z,11.63
2023-02-13T08:07:20.553Z,11.67
2023-02-13T08:10:06.161Z,11.69
2023-02-13T08:12:35.767Z,11.71
2023-02-13T08:15:02.754Z,11.74
2023-02-13T08:17:29.381Z,11.97
2023-02-13T08:19:56.259Z,12.03
2023-02-13T08:22:23.129Z,12.22
2023-02-13T08:24:49.909Z,12.34
2023-02-13T08:27:16.733Z,12.49
2023-02-13T08:29:43.683Z,12.57
2023-02-13T08:32:10.595Z,12.57
2023-02-13T08:34:37.524Z,12.66
2023-02-13T08:37:04.348Z,12.71
2023-02-13T08:39:31.169Z,12.80
2023-02-13T08:41:58.035Z,12.84
2023-02-13T08:44:25.031Z,12.88
2023-02-13T08:46:51.652Z,13.00
2023-02-13T08:49:18.422Z,13.01
2023-02-13T08:51:45.277Z,13.05
2023-02-13T08:54:12.071Z,13.10
2023-02-13T08:56:38.855Z,13.14
2023-02-13T08:59:05.580Z,13.22
2023-02-13T09:01:32.461Z,13.29
2023-02-13T09:03:59.400Z,13.34
2023-02-13T09:06:27.606Z,13.47
2023-02-13T09:08:54.955Z,13.47
2023-02-13T09:11:23.545Z,13.45
2023-02-13T09:13:53.516Z,13.49
2023-02-13T09:16:20.921Z,13.52
2023-02-13T09:18:48.965Z,13.55
2023-02-13T09:21:16.187Z,13.59
2023-02-13T09:23:43.154Z,13.63
2023-02-13T09:26:12.731Z,13.68
2023-02-13T09:28:40.255Z,13.69
2023-02-13T09:31:08.854Z,13.72
2023-02-13T09:33:36.010Z,13.80
2023-02-13T09:36:13.765Z,14.00
2023-02-13T09:38:44.780Z,13.95
2023-02-13T09:41:17.340Z,13.98
2023-02-13T09:43:49.816Z,13.92
2023-02-13T09:46:24.352Z,14.03
2023-02-13T09:48:54.769Z,14.06
2023-02-13T09:51:25.701Z,14.05
2023-02-13T09:53:56.870Z,14.09
2023-02-13T09:56:40.312Z,14.12
2023-02-13T09:59:43.320Z,14.06
2023-02-13T10:02:37.845Z,14.13
2023-02-13T10:05:17.830Z,14.16
2023-02-13T10:08:04.123Z,14.08
2023-02-13T10:10:56.167Z,14.26
2023-02-13T10:13:53.443Z,14.38
2023-02-13T10:16:24.120Z,14.46
2023-02-13T10:19:02.993Z,14.45
2023-02-13T10:21:36.885Z,14.52
2023-02-13T10:24:14.697Z,14.50
2023-02-13T10:26:45.660Z,14.49
2023-02-13T10:29:38.243Z,14.44
2023-02-13T10:32:09.523Z,14.43
2023-02-13T10:34:45.456Z,14.46
2023-02-13T10:37:20.900Z,14.46
2023-02-13T10:39:53.378Z,14.49
2023-02-13T10:42:58.486Z,14.46
2023-02-13T10:46:04.312Z,14.46
2023-02-13T10:48:57.311Z,14.49
2023-02-13T10:51:35.855Z,14.50
2023-02-13T11:25:21.508Z,14.44
2023-02-13T11:27:50.753Z,14.76
2023-02-13T11:30:23.188Z,14.83
2023-02-13T11:33:18.353Z,14.96
2023-02-13T11:35:46.794Z,15.06
2023-02-13T11:38:16.439Z,15.17
2023-02-13T11:40:46.081Z,15.14
2023-02-13T11:43:47.685Z,15.22
2023-02-13T11:46:18.396Z,15.21
2023-02-13T11:49:06.451Z,15.26
2023-02-13T11:51:47.042Z,15.20
2023-02-13T11:54:25.820Z,15.13
2023-02-13T11:57:10.592Z,15.08
2023-02-13T11:59:42.906Z,15.09
2023-02-13T12:02:27.892Z,15.07
2023-02-13T12:05:15.008Z,15.11
2023-02-13T12:07:42.951Z,15.11
2023-02-13T12:10:15.349Z,15.06
2023-02-13T12:12:47.380Z,15.09
2023-02-13T12:15:25.412Z,15.25
2023-02-13T12:18:18.230Z,15.36
2023-02-13T12:21:03.115Z,15.40
2023-02-13T12:23:48.411Z,15.46
2023-02-13T12:26:31.189Z,15.30
2023-02-13T12:29:19.330Z,15.31
2023-02-13T12:32:08.155Z,15.30
2023-02-13T12:35:00.100Z,15.27
2023-02-13T12:37:37.164Z,15.33
2023-02-13T12:40:24.694Z,15.31
2023-02-13T12:43:05.221Z,15.28
2023-02-13T12:46:08.301Z,15.29
2023-02-13T12:48:48.193Z,15.31
2023-02-13T12:51:39.662Z,15.26
2023-02-13T12:54:36.034Z,15.29
2023-02-13T12:57:30.451Z,15.34
2023-02-13T13:00:15.582Z,15.26
2023-02-13T13:03:18.984Z,15.33
2023-02-13T13:06:13.259Z,15.34
2023-02-13T13:08:46.035Z,15.35
2023-02-13T13:11:37.359Z,15.39
2023-02-13T13:14:21.072Z,15.36
2023-02-13T13:17:05.347Z,15.44
2023-02-13T13:19:59.209Z,15.47
2023-02-13T13:22:39.999Z,15.53
2023-02-13T13:25:15.728Z,15.57
2023-02-13T13:27:53.343Z,15.59
2023-02-13T13:30:27.362Z,15.59
2023-02-13T13:33:02.819Z,15.61
2023-02-13T13:35:30.691Z,15.66
2023-02-13T13:38:15.052Z,15.64
2023-02-13T13:41:06.949Z,15.70
2023-02-13T13:43:48.409Z,15.72
2023-02-13T13:46:31.459Z,15.72
2023-02-13T13:49:19.875Z,15.75
2023-02-13T13:51:46.692Z,15.82
2023-02-13T13:54:13.538Z,15.85
2023-02-13T13:57:02.142Z,15.86
2023-02-13T13:59:38.221Z,15.91
2023-02-13T14:02:17.325Z,15.96
2023-02-13T14:05:18.538Z,15.93
2023-02-13T14:07:48.384Z,15.99
2023-02-13T14:10:20.826Z,15.98
2023-02-13T14:13:02.576Z,16.06
2023-02-13T14:15:38.252Z,16.07
2023-02-13T14:18:21.072Z,16.12
2023-02-13T14:20:53.876Z,16.13
2023-02-13T14:24:03.975Z,16.17
2023-02-13T14:26:37.045Z,16.24
2023-02-13T14:29:30.614Z,16.26
2023-02-13T14:32:04.929Z,16.24
2023-02-13T14:34:37.124Z,16.23
2023-02-13T14:37:20.892Z,16.25
2023-02-13T14:40:15.502Z,16.30
2023-02-13T14:42:46.084Z,16.30
2023-02-13T14:45:44.313Z,16.26
2023-02-13T14:48:14.944Z,16.29
2023-02-13T14:50:45.763Z,16.29
2023-02-13T14:53:47.697Z,16.30
2023-02-13T14:56:18.954Z,16.29
2023-02-13T14:59:03.777Z,16.34
2023-02-13T15:01:35.029Z,16.34
2023-02-13T15:04:22.724Z,16.35
2023-02-13T15:06:50.669Z,16.34
2023-02-13T15:09:39.576Z,16.32
2023-02-13T15:12:28.385Z,16.31
2023-02-13T15:14:55.056Z,16.33
2023-02-13T15:17:32.776Z,16.36
2023-02-13T15:20:12.262Z,16.37
2023-02-13T15:22:45.237Z,16.36
2023-02-13T15:25:36.015Z,16.40
2023-02-13T15:28:05.101Z,16.37
2023-02-13T15:30:36.274Z,16.35
2023-02-13T15:33:05.207Z,16.33
2023-02-13T15:35:38.944Z,16.34
2023-02-13T15:38:27.975Z,16.33
2023-02-13T15:41:03.143Z,16.29
2023-02-13T15:43:40.310Z,16.28
2023-02-13T15:46:20.385Z,16.30
2023-02-13T15:48:48.033Z,16.29
2023-02-13T15:51:26.978Z,16.31
2023-02-13T15:53:56.576Z,16.30
2023-02-13T15:56:23.765Z,16.27
2023-02-13T15:58:51.667Z,16.31
2023-02-13T16:01:18.646Z,16.34
2023-02-13T16:03:48.543Z,16.34
2023-02-13T16:06:17.062Z,16.32
2023-02-13T16:08:55.391Z,16.33
2023-02-13T16:11:25.221Z,16.32
2023-02-13T16:13:51.864Z,16.32
2023-02-13T16:16:18.718Z,16.41
2023-02-13T16:18:45.682Z,16.48
2023-02-13T16:21:12.561Z,16.60
2023-02-13T16:23:39.384Z,16.71
2023-02-13T16:26:12.831Z,16.68
2023-02-13T16:28:39.576Z,16.48
2023-02-13T16:31:06.558Z,16.48
2023-02-13T16:33:36.291Z,16.41
2023-02-13T16:36:08.816Z,16.40
2023-02-13T16:38:38.305Z,16.39
2023-02-13T16:41:23.274Z,16.45
2023-02-13T16:44:00.382Z,16.41
2023-02-13T16:46:32.064Z,16.39
2023-02-13T16:49:01.622Z,16.40
2023-02-13T16:52:05.542Z,16.44
2023-02-13T16:54:41.362Z,16.42
2023-02-13T16:57:13.852Z,16.42
2023-02-13T16:59:49.987Z,16.37
2023-02-13T17:02:25.633Z,16.39
2023-02-13T17:04:56.580Z,16.48
2023-02-13T17:07:24.783Z,16.58
2023-02-13T17:10:21.849Z,16.59
2023-02-13T17:12:50.287Z,16.74
2023-02-13T17:15:20.922Z,16.83
2023-02-13T17:17:48.077Z,16.81
2023-02-13T17:20:19.924Z,16.76
2023-02-13T17:22:48.944Z,16.68
2023-02-13T17:25:23.292Z,16.68
2023-02-13T17:27:52.986Z,16.62
2023-02-13T17:30:22.982Z,16.61
2023-02-13T17:32:53.883Z,16.56
2023-02-13T17:35:20.664Z,16.59
2023-02-13T17:37:47.356Z,16.55
2023-02-13T17:40:18.857Z,16.51
2023-02-13T17:42:47.687Z,16.51
2023-02-13T17:45:17.230Z,16.48
2023-02-13T17:47:43.879Z,16.48
2023-02-13T17:50:12.302Z,16.48
2023-02-13T17:52:40.405Z,16.47
2023-02-13T17:55:16.874Z,16.43
2023-02-13T17:57:44.157Z,16.37
2023-02-13T18:00:11.218Z,16.37
2023-02-13T18:02:42.676Z,16.42
2023-02-13T18:05:10.501Z,16.38
2023-02-13T18:07:39.448Z,16.40
2023-02-13T18:10:13.465Z,16.47
2023-02-13T18:12:40.747Z,16.40
2023-02-13T18:15:08.155Z,16.42
2023-02-13T18:17:34.790Z,16.39
2023-02-13T18:20:01.681Z,16.36
2023-02-13T18:22:29.238Z,16.32
2023-02-13T18:24:55.924Z,16.38
2023-02-13T18:27:23.678Z,16.30
2023-02-13T18:29:50.638Z,16.31
2023-02-13T18:32:17.487Z,16.35
2023-02-13T18:34:46.557Z,16.35
2023-02-13T18:37:14.224Z,16.45
2023-02-13T18:39:41.119Z,16.33
2023-02-13T18:42:07.795Z,16.35
2023-02-13T18:44:34.847Z,16.39
2023-02-13T18:47:01.669Z,16.34
2023-02-13T18:49:28.603Z,16.42
2023-02-13T18:51:55.258Z,16.35
2023-02-13T18:54:22.004Z,16.36
2023-02-13T18:56:49.122Z,16.34
2023-02-13T18:59:16.293Z,16.28
2023-02-13T19:01:43.104Z,16.30
2023-02-13T19:04:10.199Z,16.35
2023-02-13T19:06:40.404Z,16.31
2023-02-13T19:09:19.427Z,16.30
2023-02-13T19:11:49.016Z,16.34
2023-02-13T19:14:15.791Z,16.34
2023-02-13T19:16:42.895Z,16.34
2023-02-13T19:19:09.570Z,16.30
2023-02-13T19:21:38.309Z,16.31
2023-02-13T19:24:08.615Z,16.39
2023-02-13T19:26:36.088Z,16.36
2023-02-13T19:29:03.731Z,16.32
2023-02-13T19:31:32.047Z,16.31
2023-02-13T19:34:02.357Z,16.31
2023-02-13T19:36:30.220Z,16.28
2023-02-13T19:39:03.756Z,16.29
2023-02-13T19:41:31.330Z,16.34
2023-02-13T19:43:58.522Z,16.33
2023-02-13T19:46:28.282Z,16.35
2023-02-13T19:48:55.172Z,16.35
2023-02-13T19:51:28.124Z,16.38
2023-02-13T19:53:56.916Z,16.36
2023-02-13T19:56:24.410Z,16.36
2023-02-13T19:58:51.357Z,16.30
2023-02-13T20:01:23.244Z,16.57
2023-02-13T20:03:50.239Z,16.69
2023-02-13T20:06:23.094Z,16.75
2023-02-13T20:08:50.537Z,16.87
2023-02-13T20:11:19.425Z,16.73
2023-02-13T20:13:46.215Z,16.63
2023-02-13T20:16:16.795Z,16.65
2023-02-13T20:18:43.680Z,16.46
2023-02-13T20:21:13.641Z,16.42
2023-02-13T20:23:41.679Z,16.34
2023-02-13T20:26:16.629Z,16.33
2023-02-13T20:28:45.311Z,16.40
2023-02-13T20:31:14.859Z,16.36
2023-02-13T20:33:41.993Z,16.41
2023-02-13T20:36:18.856Z,16.46
2023-02-13T20:38:45.763Z,16.55
2023-02-13T20:41:15.606Z,16.46
2023-02-13T20:43:43.319Z,16.45
2023-02-13T20:46:10.673Z,16.43
2023-02-13T20:48:41.232Z,16.31
2023-02-13T20:51:11.526Z,16.34
2023-02-13T20:53:39.470Z,16.25
2023-02-13T20:56:07.648Z,16.38
2023-02-13T20:58:34.601Z,16.46
2023-02-13T21:01:01.872Z,16.39
2023-02-13T21:03:29.234Z,16.16
2023-02-13T21:05:56.076Z,16.17
2023-02-13T21:08:22.940Z,16.15
2023-02-13T21:10:49.685Z,15.90
2023-02-13T21:13:16.465Z,15.79
2023-02-13T21:15:48.106Z,15.67
2023-02-13T21:18:15.517Z,15.61
2023-02-13T21:20:42.436Z,15.55
2023-02-13T21:23:09.234Z,15.50
2023-02-13T21:25:36.069Z,15.44
2023-02-13T21:28:02.933Z,15.37
2023-02-13T21:30:29.695Z,15.29
2023-02-13T21:32:56.315Z,15.25
2023-02-13T21:35:22.916Z,15.20
2023-02-13T21:37:49.481Z,15.17
2023-02-13T21:40:16.942Z,15.10
2023-02-13T21:42:43.721Z,15.04
2023-02-13T21:45:11.891Z,15.00
2023-02-13T21:47:38.576Z,14.94
2023-02-13T21:50:06.777Z,14.92
2023-02-13T21:52:35.442Z,14.84
2023-02-13T21:55:03.960Z,14.82
2023-02-13T21:57:30.783Z,14.79
2023-02-13T21:59:57.596Z,14.76
2023-02-13T22:02:27.002Z,14.73
2023-02-13T22:04:54.003Z,14.70
2023-02-13T22:07:20.871Z,14.66
2023-02-13T22:09:49.834Z,14.60
2023-02-13T22:12:16.609Z,14.61
2023-02-13T22:14:43.617Z,14.60
2023-02-13T22:17:10.368Z,14.57
2023-02-13T22:19:37.040Z,14.55
2023-02-13T22:22:04.004Z,14.53
2023-02-13T22:24:30.902Z,14.51
2023-02-13T22:26:57.805Z,14.48
2023-02-13T22:29:26.005Z,14.45
2023-02-13T22:31:53.112Z,14.45
2023-02-13T22:34:20.418Z,14.40
2023-02-13T22:36:46.995Z,14.37
2023-02-13T22:39:13.734Z,14.34
2023-02-13T22:41:41.066Z,14.31
2023-02-13T22:44:07.906Z,14.24
2023-02-13T22:46:37.007Z,14.23
2023-02-13T22:49:03.823Z,14.21
2023-02-13T22:51:34.237Z,14.21
2023-02-13T22:54:01.490Z,14.18
2023-02-13T22:56:29.740Z,14.15
2023-02-13T22:58:57.283Z,14.17
2023-02-13T23:01:26.272Z,14.14
2023-02-13T23:03:55.580Z,14.10
2023-02-13T23:06:22.451Z,14.06
2023-02-13T23:08:52.635Z,14.07
2023-02-13T23:11:40.446Z,14.04
2023-02-13T23:14:07.303Z,14.00
2023-02-13T23:16:53.910Z,13.93
2023-02-13T23:19:21.632Z,13.91
2023-02-13T23:21:48.417Z,13.85
2023-02-13T23:24:15.196Z,13.82
2023-02-13T23:26:41.896Z,13.83
2023-02-13T23:29:08.688Z,13.80
2023-02-13T23:31:35.436Z,13.75
2023-02-13T23:34:02.221Z,13.75
2023-02-13T23:36:28.991Z,13.72
2023-02-13T23:38:55.685Z,13.72
2023-02-13T23:41:22.389Z,13.69
2023-02-13T23:43:49.099Z,13.62
2023-02-13T23:46:16.014Z,13.60
2023-02-13T23:48:42.856Z,13.59
2023-02-13T23:51:09.729Z,13.58
2023-02-13T23:53:36.696Z,13.57
2023-02-13T23:56:04.597Z,13.54
2023-02-13T23:58:31.190Z,13.53
